Time;durP1;ratioP1;P1;durP2;ratioP2;P2;SDS_P1;SDS_P2;PMS_P1;PMS_P2;Temp;Humidity;BMP_temperature;BMP_pressure;BME280_temperature;BME280_humidity;BME280_pressure;Samples;Min_cycle;Max_cycle;Signal;HPM_P1;HPM_P2
2021/12/29 00:01:50;;;;;;;;;1.00;1.00;;;;;21.24;38.60;100272.94;5059347;28;45570;-56
2021/12/29 00:04:16;;;;;;;;;4.00;1.25;;;;;21.25;38.03;100284.34;5058652;28;46558;-57
2021/12/29 00:06:42;;;;;;;;;3.25;2.00;;;;;21.23;38.57;100276.53;5058534;28;45393;-54
2021/12/29 00:09:07;;;;;;;;;1.00;1.00;;;;;21.21;38.41;100275.81;5057239;28;45257;-56
2021/12/29 00:11:37;;;;;;;;;1.00;1.00;;;;;21.22;38.24;100285.38;5058869;28;45518;-56
2021/12/29 00:14:03;;;;;;;;;3.75;2.25;;;;;21.19;38.36;100290.88;5058557;28;45628;-54
2021/12/29 00:16:33;;;;;;;;;2.00;2.00;;;;;21.19;38.66;100292.66;5058544;28;45437;-54
2021/12/29 00:18:58;;;;;;;;;5.00;2.00;;;;;21.17;38.36;100298.88;5058615;28;45290;-57
2021/12/29 00:21:24;;;;;;;;;4.50;2.75;;;;;21.16;38.08;100291.94;5059105;28;45545;-53
2021/12/29 00:23:49;;;;;;;;;1.00;1.00;;;;;21.16;38.90;100307.75;5058235;28;45667;-54
2021/12/29 00:26:14;;;;;;;;;2.00;1.25;;;;;21.15;38.25;100336.81;5058489;28;45362;-56
2021/12/29 00:28:40;;;;;;;;;0.50;0.50;;;;;21.13;38.61;100333.44;5058515;28;45947;-54
2021/12/29 00:31:05;;;;;;;;;3.75;2.50;;;;;21.12;38.74;100334.38;5057604;28;45732;-56
2021/12/29 00:33:30;;;;;;;;;4.75;2.50;;;;;21.11;38.69;100340.63;5057553;28;46420;-58
2021/12/29 00:35:56;;;;;;;;;3.25;2.25;;;;;21.07;38.38;100332.03;5058049;28;45375;-57
2021/12/29 00:38:21;;;;;;;;;1.00;1.00;;;;;21.10;38.34;100349.47;5058581;28;45355;-54
2021/12/29 00:40:47;;;;;;;;;3.50;1.50;;;;;21.08;38.43;100356.63;5058644;28;45616;-56
2021/12/29 00:43:12;;;;;;;;;2.25;2.25;;;;;21.08;38.92;100351.34;5057923;28;45404;-54
2021/12/29 00:45:39;;;;;;;;;3.00;2.00;;;;;21.05;38.65;100346.28;5058220;28;45428;-57
2021/12/29 00:48:10;;;;;;;;;3.00;3.00;;;;;21.05;38.57;100362.09;5058029;28;45338;-55
2021/12/29 00:50:35;;;;;;;;;2.00;2.00;;;;;21.01;38.42;100357.00;5058192;28;45347;-55
2021/12/29 00:53:01;;;;;;;;;2.00;2.00;;;;;21.01;38.72;100351.72;5057901;28;45252;-57
2021/12/29 00:55:26;;;;;;;;;3.00;1.00;;;;;21.00;38.80;100362.38;5058171;28;45345;-55
2021/12/29 00:57:51;;;;;;;;;2.25;1.75;;;;;21.00;38.79;100362.38;5058045;28;45747;-54
2021/12/29 01:00:21;;;;;;;;;1.25;1.25;;;;;20.96;38.55;100359.09;5058326;28;45591;-55
2021/12/29 01:02:48;;;;;;;;;4.00;3.25;;;;;20.97;38.83;100352.91;5057581;28;47039;-57
2021/12/29 01:05:14;;;;;;;;;2.00;2.00;;;;;20.94;38.80;100355.72;5057887;28;45670;-55
2021/12/29 01:07:41;;;;;;;;;2.00;2.00;;;;;20.95;39.03;100359.19;5057577;28;45215;-57
2021/12/29 01:10:07;;;;;;;;;2.00;1.00;;;;;20.93;38.50;100354.03;5058025;28;45270;-56
2021/12/29 01:12:33;;;;;;;;;2.00;1.00;;;;;20.92;38.99;100354.97;5057666;28;45967;-54
2021/12/29 01:15:00;;;;;;;;;3.00;3.00;;;;;20.89;39.05;100363.06;5057592;28;45413;-56
2021/12/29 01:17:26;;;;;;;;;2.00;1.75;;;;;20.90;38.77;100370.03;5057955;28;45354;-54
2021/12/29 01:19:54;;;;;;;;;2.75;2.00;;;;;20.88;38.58;100371.94;5057796;28;45318;-57
2021/12/29 01:22:21;;;;;;;;;3.75;2.25;;;;;20.87;38.87;100378.16;5057289;28;46195;-55
2021/12/29 01:24:47;;;;;;;;;3.25;1.50;;;;;20.86;38.85;100381.72;5057367;28;45252;-55
2021/12/29 01:27:14;;;;;;;;;3.00;1.50;;;;;20.85;38.67;100374.75;5057470;28;45395;-57
2021/12/29 01:29:40;;;;;;;;;5.00;2.00;;;;;20.83;38.88;100379.28;5057368;28;45279;-54
2021/12/29 01:32:06;;;;;;;;;2.00;2.00;;;;;20.82;38.81;100374.94;5057140;28;45426;-54
2021/12/29 01:34:32;;;;;;;;;4.00;1.50;;;;;20.81;38.68;100370.63;5056119;28;45512;-56
2021/12/29 01:36:58;;;;;;;;;3.25;3.00;;;;;20.78;38.68;100371.66;5057785;28;45410;-55
2021/12/29 01:39:24;;;;;;;;;4.50;1.50;;;;;20.78;39.08;100371.66;5057460;28;45668;-55
2021/12/29 01:41:54;;;;;;;;;1.75;1.50;;;;;20.77;38.85;100363.88;5057108;28;46093;-53
2021/12/29 01:44:23;;;;;;;;;1.50;1.50;;;;;20.76;39.27;100364.81;5057093;28;45470;-54
2021/12/29 01:46:50;;;;;;;;;2.50;1.00;;;;;20.77;39.30;100369.16;5039488;28;45383;-55
2021/12/29 01:49:15;;;;;;;;;0.00;0.00;;;;;20.75;38.81;100369.22;5057390;28;45638;-55
2021/12/29 01:51:48;;;;;;;;;1.00;1.00;;;;;20.76;38.77;100380.63;5056829;28;45498;-56
2021/12/29 01:54:23;;;;;;;;;1.75;1.75;;;;;20.73;39.26;100375.50;5057088;28;45998;-56
2021/12/29 01:56:51;;;;;;;;;1.00;1.00;;;;;20.73;39.42;100380.78;5055983;28;45257;-53
2021/12/29 01:59:17;;;;;;;;;2.00;1.75;;;;;20.72;39.00;100381.72;5057223;28;45570;-56
2021/12/29 02:01:43;;;;;;;;;2.25;2.00;;;;;20.69;39.03;100378.31;5056800;28;46204;-54
2021/12/29 02:04:08;;;;;;;;;1.50;1.50;;;;;20.68;39.00;100389.78;5056949;28;45926;-56
2021/12/29 02:06:35;;;;;;;;;2.00;2.00;;;;;20.68;39.21;100396.88;5056923;28;45279;-56
2021/12/29 02:09:00;;;;;;;;;3.25;2.50;;;;;20.66;38.79;100388.22;5057247;28;46075;-55
2021/12/29 02:11:30;;;;;;;;;6.00;3.00;;;;;20.66;38.94;100393.47;5057088;28;45330;-58
2021/12/29 02:14:00;;;;;;;;;2.75;1.00;;;;;20.65;39.31;100397.91;5055411;28;45268;-55
2021/12/29 02:16:27;;;;;;;;;2.50;2.50;;;;;20.63;39.00;100391.88;5057423;28;45860;-55
2021/12/29 02:19:01;;;;;;;;;3.25;2.75;;;;;20.63;39.49;100388.41;5057027;28;45239;-54
2021/12/29 02:21:29;;;;;;;;;2.50;0.75;;;;;20.62;39.53;100386.69;5056884;28;46413;-56
2021/12/29 02:24:18;;;;;;;;;3.00;2.00;;;;;20.60;39.17;100389.44;5056695;28;45305;-56
2021/12/29 02:26:42;;;;;;;;;2.25;1.75;;;;;20.59;39.15;100382.47;5056576;28;45414;-56
2021/12/29 02:29:11;;;;;;;;;4.25;2.75;;;;;20.59;39.38;100385.13;5056595;28;45559;-55
2021/12/29 02:31:36;;;;;;;;;2.75;1.75;;;;;20.57;39.39;100381.72;5056441;28;46269;-54
2021/12/29 02:34:03;;;;;;;;;5.00;3.50;;;;;20.55;39.34;100392.38;5055236;28;45459;-56
2021/12/29 02:36:29;;;;;;;;;6.25;2.00;;;;;20.55;39.63;100386.28;5056706;28;45280;-55
2021/12/29 02:38:56;;;;;;;;;1.50;1.50;;;;;20.59;39.85;100395.66;5056688;28;45235;-57
2021/12/29 02:41:24;;;;;;;;;2.00;1.75;;;;;20.62;39.26;100394.59;5056384;28;47020;-54
2021/12/29 02:43:58;;;;;;;;;2.00;2.00;;;;;20.64;39.39;100385.69;5055068;28;45761;-55
2021/12/29 02:46:24;;;;;;;;;2.00;2.00;;;;;20.68;39.24;100383.69;5056523;28;45558;-56
2021/12/29 02:49:02;;;;;;;;;2.50;2.00;;;;;20.74;39.51;100385.09;5056471;28;45299;-54
2021/12/29 02:51:29;;;;;;;;;2.50;0.25;;;;;20.77;39.52;100369.97;5056126;28;46402;-57
2021/12/29 02:53:55;;;;;;;;;2.75;2.00;;;;;20.81;39.64;100370.63;5056200;28;45732;-56
2021/12/29 02:56:22;;;;;;;;;3.00;1.75;;;;;20.85;39.40;100383.50;5056251;28;45242;-56
2021/12/29 02:58:48;;;;;;;;;2.00;2.00;;;;;20.89;39.73;100384.13;5059524;28;45276;-57
2021/12/29 03:01:15;;;;;;;;;0.50;0.25;;;;;20.94;39.18;100382.06;5059712;28;45393;-56
2021/12/29 03:03:41;;;;;;;;;2.75;2.00;;;;;20.96;39.56;100382.81;5059672;28;45784;-59
2021/12/29 03:06:08;;;;;;;;;2.00;2.00;;;;;20.99;39.08;100377.34;5058434;28;45380;-57
2021/12/29 03:08:34;;;;;;;;;1.50;1.50;;;;;21.05;39.76;100383.16;5059686;28;45480;-54
2021/12/29 03:11:00;;;;;;;;;3.50;1.00;;;;;21.07;39.23;100382.09;5059841;28;45621;-57
2021/12/29 03:13:31;;;;;;;;;2.25;2.25;;;;;21.10;39.19;100375.81;5059504;28;45365;-58
2021/12/29 03:15:58;;;;;;;;;3.00;2.50;;;;;21.12;39.12;100381.81;5059623;28;45287;-58
2021/12/29 03:18:23;;;;;;;;;4.00;2.00;;;;;21.14;39.33;100379.91;5059738;28;45252;-55
2021/12/29 03:20:49;;;;;;;;;2.00;2.00;;;;;21.17;39.26;100377.94;5059283;28;45590;-55
2021/12/29 03:23:16;;;;;;;;;7.00;3.75;;;;;21.17;39.28;100377.94;5059285;28;45380;-55
2021/12/29 03:25:42;;;;;;;;;2.50;1.00;;;;;21.20;39.09;100376.91;5059534;28;45363;-56
2021/12/29 03:28:08;;;;;;;;;3.75;1.75;;;;;21.22;39.17;100379.44;5059412;28;45429;-55
2021/12/29 03:30:41;;;;;;;;;1.50;1.00;;;;;21.21;39.27;100375.97;5059467;28;45423;-58
2021/12/29 03:33:07;;;;;;;;;1.75;1.00;;;;;21.24;39.13;100388.91;5059269;28;45640;-59
2021/12/29 03:35:35;;;;;;;;;3.25;2.75;;;;;21.25;39.00;100395.88;5059600;28;45400;-58
2021/12/29 03:38:05;;;;;;;;;3.25;1.00;;;;;21.24;39.16;100388.91;5059733;28;45291;-58
2021/12/29 03:40:30;;;;;;;;;3.00;2.00;;;;;21.25;39.46;100380.06;5058150;28;46227;-58
2021/12/29 03:42:56;;;;;;;;;4.00;2.00;;;;;21.25;39.37;100380.06;5058956;28;45177;-56
2021/12/29 03:45:22;;;;;;;;;2.25;2.25;;;;;21.26;38.76;100378.28;5059240;28;45267;-56
2021/12/29 03:47:48;;;;;;;;;2.00;2.00;;;;;21.25;39.49;100385.34;5059123;28;45498;-54
2021/12/29 03:50:13;;;;;;;;;4.00;1.00;;;;;21.25;38.91;100377.44;5058756;28;46692;-55
2021/12/29 03:52:39;;;;;;;;;2.00;2.00;;;;;21.25;39.16;100379.22;5059025;28;45378;-54
2021/12/29 03:55:05;;;;;;;;;3.00;2.50;;;;;21.26;39.26;100373.03;5058144;28;45423;-54
2021/12/29 03:57:30;;;;;;;;;4.00;2.75;;;;;21.24;39.08;100367.81;5059175;28;45575;-56
2021/12/29 03:59:56;;;;;;;;;1.00;1.00;;;;;21.24;39.15;100365.19;5057565;28;46293;-55
2021/12/29 04:02:21;;;;;;;;;0.75;0.75;;;;;21.25;39.37;100366.06;5057456;28;45711;-57
2021/12/29 04:04:47;;;;;;;;;2.25;2.00;;;;;21.21;39.48;100357.50;5058868;28;45762;-53
2021/12/29 04:07:12;;;;;;;;;3.25;2.25;;;;;21.21;39.01;100361.91;5057570;28;45304;-56
2021/12/29 04:09:38;;;;;;;;;2.75;1.50;;;;;21.21;39.16;100362.78;5056113;28;46289;-55
2021/12/29 04:12:04;;;;;;;;;2.00;2.00;;;;;21.21;39.21;100356.66;5058861;28;45395;-54
2021/12/29 04:14:30;;;;;;;;;2.00;1.50;;;;;21.19;39.48;100366.44;5058681;28;45409;-58
2021/12/29 04:16:57;;;;;;;;;4.75;1.00;;;;;21.17;39.45;100364.75;5058789;28;45155;-56
2021/12/29 04:19:39;;;;;;;;;1.50;1.50;;;;;21.17;39.06;100372.66;5058501;28;47119;-58
2021/12/29 04:22:07;;;;;;;;;3.50;2.25;;;;;21.15;39.38;100373.72;5058816;28;45283;-54
2021/12/29 04:24:33;;;;;;;;;2.25;1.00;;;;;21.14;39.52;100374.66;5058823;28;45425;-55
2021/12/29 04:26:59;;;;;;;;;2.00;2.00;;;;;21.13;39.12;100371.19;5058599;28;45385;-54
2021/12/29 04:29:25;;;;;;;;;1.00;1.00;;;;;21.13;39.50;100372.97;5058063;28;46218;-56
2021/12/29 04:31:50;;;;;;;;;1.75;1.00;;;;;21.11;39.25;100366.97;5058245;28;45276;-54
2021/12/29 04:34:15;;;;;;;;;1.75;1.00;;;;;21.11;39.22;100375.69;5058392;28;45253;-57
2021/12/29 04:36:41;;;;;;;;;1.00;1.00;;;;;21.10;39.75;100370.53;5058528;28;45341;-57
2021/12/29 04:39:06;;;;;;;;;2.00;1.00;;;;;21.09;39.54;100371.50;5058289;28;46206;-56
2021/12/29 04:41:32;;;;;;;;;3.50;1.50;;;;;21.09;39.80;100368.84;5058140;28;45376;-57
2021/12/29 04:43:58;;;;;;;;;2.75;1.50;;;;;21.07;39.28;100370.75;5058274;28;45224;-54
2021/12/29 04:46:35;;;;;;;;;1.50;1.50;;;;;21.06;39.51;100369.03;5058274;28;45189;-56
2021/12/29 04:49:02;;;;;;;;;1.25;1.00;;;;;21.04;39.93;100361.25;5057670;28;46384;-56
2021/12/29 04:51:34;;;;;;;;;2.50;1.00;;;;;21.04;39.33;100360.38;5056793;28;45487;-55
2021/12/29 04:54:05;;;;;;;;;1.00;1.00;;;;;20.99;39.67;100353.66;5058164;28;45342;-56
2021/12/29 04:56:31;;;;;;;;;2.25;0.50;;;;;21.01;39.32;100349.09;5058262;28;45412;-55
2021/12/29 04:58:57;;;;;;;;;2.25;0.75;;;;;20.99;39.35;100350.16;5057846;28;45493;-56
2021/12/29 05:01:22;;;;;;;;;2.00;1.00;;;;;20.97;39.52;100347.63;5057760;28;45296;-55
2021/12/29 05:03:48;;;;;;;;;1.25;0.75;;;;;20.97;39.58;100347.63;5058086;28;45203;-55
2021/12/29 05:08:39;;;;;;;;;3.00;2.25;;;;;20.94;39.66;100342.56;5057494;28;45428;-55
2021/12/29 05:11:07;;;;;;;;;2.00;2.00;;;;;20.93;39.98;100340.84;5058119;28;45280;-53
2021/12/29 05:13:36;;;;;;;;;1.50;1.50;;;;;20.92;39.61;100341.78;5057782;28;45307;-56
2021/12/29 05:16:02;;;;;;;;;2.75;1.50;;;;;20.91;40.11;100340.09;5057976;28;45253;-55
2021/12/29 05:18:30;;;;;;;;;1.75;1.75;;;;;20.91;39.79;100334.00;5057396;28;45303;-54
2021/12/29 05:20:57;;;;;;;;;2.00;2.00;;;;;20.89;39.56;100328.81;5057022;28;45641;-54
2021/12/29 05:23:23;;;;;;;;;4.00;2.00;;;;;20.88;40.08;100329.78;5057794;28;45362;-55
2021/12/29 05:25:49;;;;;;;;;1.75;1.75;;;;;20.87;39.99;100322.81;5057754;28;45415;-56
2021/12/29 05:28:17;;;;;;;;;1.25;1.00;;;;;20.87;40.14;100322.81;5057182;28;45524;-55
2021/12/29 05:30:43;;;;;;;;;2.00;1.00;;;;;20.86;40.05;100321.13;5057296;28;45703;-55
2021/12/29 05:33:09;;;;;;;;;0.50;0.50;;;;;20.84;39.63;100323.03;5057854;28;45386;-55
2021/12/29 05:35:35;;;;;;;;;1.00;1.00;;;;;20.83;40.00;100311.66;5057745;28;45632;-55
2021/12/29 05:38:00;;;;;;;;;1.00;1.00;;;;;20.83;40.08;100321.31;5057028;28;45378;-54
2021/12/29 05:40:27;;;;;;;;;3.00;1.00;;;;;20.81;40.02;100312.69;5057273;28;45217;-57
2021/12/29 05:42:53;;;;;;;;;2.75;0.25;;;;;20.80;40.15;100311.84;5057421;28;45469;-55
2021/12/29 05:45:18;;;;;;;;;2.75;1.00;;;;;20.78;40.30;100308.47;5056155;28;45740;-55
2021/12/29 05:47:45;;;;;;;;;1.00;1.00;;;;;20.77;40.20;100317.31;5057045;28;45344;-55
2021/12/29 05:50:14;;;;;;;;;1.00;0.75;;;;;20.78;40.30;100320.78;5057394;28;45707;-54
2021/12/29 05:52:39;;;;;;;;;2.00;1.00;;;;;20.75;40.24;100297.28;5057316;28;45251;-55
2021/12/29 05:55:06;;;;;;;;;1.50;0.00;;;;;20.73;40.12;100299.13;5057351;28;45652;-54
2021/12/29 05:57:32;;;;;;;;;1.75;1.00;;;;;20.73;39.75;100301.78;5056879;28;46804;-54
2021/12/29 05:59:57;;;;;;;;;2.25;0.00;;;;;20.73;40.45;100304.41;5057011;28;45235;-54
2021/12/29 06:02:22;;;;;;;;;2.00;2.00;;;;;20.70;40.01;100289.66;5057024;28;45417;-55
2021/12/29 06:04:48;;;;;;;;;1.25;1.25;;;;;20.70;40.53;100301.00;5057236;28;45257;-53
2021/12/29 06:07:13;;;;;;;;;1.50;1.50;;;;;20.68;40.09;100294.16;5056579;28;46329;-54
2021/12/29 06:09:40;;;;;;;;;2.75;1.00;;;;;20.67;40.21;100301.19;5057163;28;45383;-59
2021/12/29 06:12:05;;;;;;;;;2.50;1.00;;;;;20.66;40.42;100296.91;5057049;28;45410;-55
2021/12/29 06:14:31;;;;;;;;;1.00;0.25;;;;;20.65;40.54;100286.47;5057108;28;45314;-54
2021/12/29 06:16:56;;;;;;;;;0.00;0.00;;;;;20.64;40.45;100287.41;5056607;28;46701;-53
2021/12/29 06:19:22;;;;;;;;;0.00;0.00;;;;;20.64;40.36;100284.75;5056714;28;45311;-55
2021/12/29 06:21:47;;;;;;;;;1.50;1.50;;;;;20.62;40.20;100292.78;5056836;28;45457;-54
2021/12/29 06:24:12;;;;;;;;;1.00;1.00;;;;;20.62;40.42;100295.41;5056947;28;45371;-55
2021/12/29 06:26:38;;;;;;;;;1.00;1.00;;;;;20.60;40.63;100299.91;5055511;28;47308;-54
2021/12/29 06:29:04;;;;;;;;;1.00;1.00;;;;;20.60;40.54;100294.66;5056515;28;45344;-55
2021/12/29 06:31:29;;;;;;;;;1.25;1.00;;;;;20.59;40.88;100302.66;5056047;28;45358;-55
2021/12/29 06:33:55;;;;;;;;;0.00;0.00;;;;;20.58;40.28;100295.72;5056761;28;45322;-55
2021/12/29 06:36:20;;;;;;;;;1.00;0.50;;;;;20.53;40.89;100298.63;5056284;28;46113;-56
2021/12/29 06:38:46;;;;;;;;;1.00;1.00;;;;;20.53;40.54;100302.09;5056493;28;45422;-55
2021/12/29 06:41:11;;;;;;;;;2.50;1.00;;;;;20.53;40.38;100309.16;5056822;28;45393;-54
2021/12/29 06:43:36;;;;;;;;;3.00;1.00;;;;;20.51;40.93;100295.25;5056716;28;45584;-54
2021/12/29 06:46:02;;;;;;;;;1.00;1.00;;;;;20.50;40.56;100294.41;5056226;28;46326;-54
2021/12/29 06:48:27;;;;;;;;;0.50;0.25;;;;;20.49;40.66;100295.34;5056306;28;45660;-53
2021/12/29 06:50:53;;;;;;;;;2.00;1.00;;;;;20.49;40.57;100291.88;5056346;28;45481;-55
2021/12/29 06:53:18;;;;;;;;;0.25;0.25;;;;;20.47;40.78;100299.00;5056554;28;45614;-53
2021/12/29 06:55:44;;;;;;;;;2.00;1.00;;;;;20.46;40.73;100287.66;5056296;28;45314;-54
2021/12/29 06:58:10;;;;;;;;;0.00;0.00;;;;;20.45;40.97;100295.66;5056353;28;45467;-56
2021/12/29 07:00:37;;;;;;;;;1.00;1.00;;;;;20.44;40.63;100288.69;5056268;28;45341;-54
2021/12/29 07:03:03;;;;;;;;;1.25;1.00;;;;;20.44;40.89;100296.59;5055187;28;45352;-55
2021/12/29 07:05:29;;;;;;;;;0.25;0.25;;;;;20.43;40.70;100287.00;5055931;28;45437;-54
2021/12/29 07:07:54;;;;;;;;;2.00;1.00;;;;;20.41;40.89;100291.50;5054597;28;45649;-53
2021/12/29 07:10:21;;;;;;;;;0.00;0.00;;;;;20.40;40.90;100288.03;5056363;28;45300;-55
2021/12/29 07:12:47;;;;;;;;;2.00;1.00;;;;;20.40;41.17;100295.91;5056254;28;45523;-55
2021/12/29 07:15:12;;;;;;;;;1.00;1.00;;;;;20.37;40.72;100298.75;5056255;28;46604;-53
2021/12/29 07:17:38;;;;;;;;;0.50;0.50;;;;;20.38;40.85;100300.47;5056028;28;45522;-54
2021/12/29 07:20:04;;;;;;;;;0.50;0.50;;;;;20.37;41.25;100290.88;5056083;28;45439;-55
2021/12/29 07:22:30;;;;;;;;;1.00;1.00;;;;;20.36;40.78;100286.53;5056110;28;45480;-53
2021/12/29 07:24:55;;;;;;;;;0.25;0.25;;;;;20.35;41.15;100293.59;5055807;28;45384;-56
2021/12/29 07:27:20;;;;;;;;;0.00;0.00;;;;;20.35;40.92;100292.75;5055795;28;45390;-55
2021/12/29 07:29:46;;;;;;;;;1.00;1.00;;;;;20.34;41.09;100299.78;5055876;28;45307;-53
2021/12/29 07:32:11;;;;;;;;;1.00;1.00;;;;;20.34;41.04;100298.94;5056397;28;45677;-53
2021/12/29 07:34:37;;;;;;;;;0.00;0.00;;;;;20.31;41.29;100294.72;5055655;28;45328;-56
2021/12/29 07:37:02;;;;;;;;;0.75;0.75;;;;;20.32;40.93;100290.31;5055691;28;45536;-54
2021/12/29 07:39:28;;;;;;;;;0.00;0.00;;;;;20.30;40.89;100290.41;5054556;28;45254;-54
2021/12/29 07:41:54;;;;;;;;;3.00;2.50;;;;;20.27;41.56;100297.66;5055931;28;45364;-55
2021/12/29 07:44:20;;;;;;;;;1.75;1.75;;;;;20.19;42.40;100306.03;5056618;28;47726;-53
2021/12/29 07:46:49;;;;;;;;;3.25;2.50;;;;;20.06;43.33;100306.78;5059484;28;45403;-53
2021/12/29 07:49:15;;;;;;;;;1.50;1.50;;;;;19.99;42.93;100302.84;5059386;28;45351;-55
2021/12/29 07:51:41;;;;;;;;;1.00;1.00;;;;;19.97;43.63;100317.88;5059438;28;45532;-54
2021/12/29 07:54:07;;;;;;;;;1.50;1.50;;;;;19.96;43.40;100312.69;5059091;28;46582;-52
2021/12/29 07:56:32;;;;;;;;;1.75;1.75;;;;;19.96;43.34;100317.94;5058915;28;45451;-58
2021/12/29 07:58:58;;;;;;;;;1.75;1.75;;;;;19.96;43.61;100312.69;5059114;28;45677;-55
2021/12/29 08:01:24;;;;;;;;;2.00;2.00;;;;;19.90;43.72;100306.88;5059035;28;45501;-53
2021/12/29 08:03:50;;;;;;;;;2.00;2.00;;;;;19.89;44.01;100314.88;5058661;28;46555;-56
2021/12/29 08:06:16;;;;;;;;;2.75;1.00;;;;;19.87;43.98;100317.59;5059084;28;45192;-56
2021/12/29 08:08:42;;;;;;;;;1.50;1.50;;;;;19.88;44.04;100323.69;5058726;28;45691;-53
2021/12/29 08:11:07;;;;;;;;;3.00;3.00;;;;;19.86;44.09;100328.19;5059128;28;45329;-55
2021/12/29 08:13:33;;;;;;;;;2.00;1.00;;;;;19.81;43.97;100338.97;5058740;28;45486;-53
2021/12/29 08:15:58;;;;;;;;;3.00;2.00;;;;;19.83;44.17;100331.84;5058601;28;45258;-53
2021/12/29 08:18:23;;;;;;;;;2.00;2.00;;;;;19.86;44.56;100325.56;5058666;28;45809;-55
2021/12/29 08:20:49;;;;;;;;;4.00;2.50;;;;;19.86;44.27;100347.44;5058918;28;45532;-54
2021/12/29 08:23:14;;;;;;;;;1.00;1.00;;;;;19.85;44.19;100350.16;5057245;28;47412;-54
2021/12/29 08:25:40;;;;;;;;;1.75;1.00;;;;;19.86;44.25;100341.34;5058474;28;45429;-53
2021/12/29 08:28:06;;;;;;;;;2.00;2.00;;;;;19.87;44.23;100346.50;5058479;28;45449;-53
2021/12/29 08:30:32;;;;;;;;;1.75;1.75;;;;;19.85;44.56;100345.72;5058734;28;45495;-53
2021/12/29 08:32:58;;;;;;;;;1.00;1.00;;;;;19.87;44.45;100358.81;5057829;28;45707;-53
2021/12/29 08:35:23;;;;;;;;;2.25;2.25;;;;;19.87;44.55;100361.47;5058220;28;45331;-53
2021/12/29 08:37:50;;;;;;;;;3.75;2.25;;;;;19.88;44.53;100356.09;5074235;28;45423;-53
2021/12/29 08:40:16;;;;;;;;;1.25;1.25;;;;;19.88;44.77;100365.78;5058814;28;45216;-54
2021/12/29 08:42:43;;;;;;;;;2.00;2.00;;;;;19.87;44.97;100353.56;5058187;28;45223;-52
2021/12/29 08:45:11;;;;;;;;;2.00;2.00;;;;;19.85;44.94;100352.78;5058080;28;45275;-53
2021/12/29 08:47:37;;;;;;;;;1.75;1.75;;;;;19.85;44.93;100360.66;5058152;28;45556;-52
2021/12/29 08:50:05;;;;;;;;;1.25;1.25;;;;;19.84;44.81;100349.31;5058265;28;45593;-53
2021/12/29 08:52:31;;;;;;;;;1.50;1.50;;;;;19.86;44.73;100344.81;5057941;28;45274;-54
2021/12/29 08:54:56;;;;;;;;;1.00;1.00;;;;;19.85;45.00;100355.41;5056074;28;45347;-50
2021/12/29 08:57:21;;;;;;;;;3.50;2.00;;;;;19.87;44.72;100348.31;5058030;28;45238;-52
2021/12/29 08:59:47;;;;;;;;;3.00;2.00;;;;;19.83;45.07;100347.63;5058168;28;45552;-51
2021/12/29 09:02:13;;;;;;;;;1.00;1.00;;;;;19.85;45.07;100350.97;5056422;28;52055;-53
2021/12/29 09:04:38;;;;;;;;;3.75;2.00;;;;;19.84;45.20;100357.19;5057918;28;45524;-52
2021/12/29 09:07:03;;;;;;;;;3.25;2.00;;;;;19.81;44.83;100351.25;5057720;28;45266;-53
2021/12/29 09:09:29;;;;;;;;;1.00;1.00;;;;;19.82;45.05;100355.59;5057846;28;45336;-52
2021/12/29 09:11:55;;;;;;;;;4.00;3.00;;;;;19.82;45.66;100338.03;5057586;28;45420;-54
2021/12/29 09:14:20;;;;;;;;;2.00;2.00;;;;;19.81;44.97;100338.09;5057964;28;45326;-54
2021/12/29 09:16:46;;;;;;;;;0.50;0.50;;;;;19.81;45.12;100343.38;5056544;28;45767;-54
2021/12/29 09:19:12;;;;;;;;;3.50;2.50;;;;;19.80;45.20;100337.28;5058037;28;45960;-54
2021/12/29 09:21:39;;;;;;;;;2.50;1.50;;;;;19.83;45.07;100333.59;5057506;28;46125;-53
2021/12/29 09:24:05;;;;;;;;;2.00;1.00;;;;;19.81;45.51;100323.19;5056283;28;45346;-53
2021/12/29 09:26:31;;;;;;;;;2.00;2.00;;;;;19.82;45.20;100338.03;5057522;28;45408;-52
2021/12/29 09:28:56;;;;;;;;;2.50;2.50;;;;;19.86;45.19;100343.97;5057596;28;45359;-52
2021/12/29 09:31:22;;;;;;;;;3.00;2.00;;;;;19.87;45.51;100346.50;5056281;28;47274;-51
2021/12/29 09:33:47;;;;;;;;;1.00;1.00;;;;;19.88;45.12;100355.25;5057752;28;45275;-50
2021/12/29 09:36:15;;;;;;;;;1.50;1.50;;;;;19.91;45.27;100352.44;5057473;28;45631;-52
2021/12/29 09:38:41;;;;;;;;;1.25;1.00;;;;;19.91;45.70;100344.53;5057678;28;45317;-54
2021/12/29 09:41:09;;;;;;;;;2.00;1.00;;;;;19.90;45.20;100342.84;5057169;28;46092;-53
2021/12/29 09:43:35;;;;;;;;;2.00;1.00;;;;;19.90;45.35;100337.59;5057165;28;45347;-52
2021/12/29 09:46:00;;;;;;;;;2.50;2.50;;;;;19.88;45.86;100336.84;5057320;28;45492;-52
2021/12/29 09:48:26;;;;;;;;;1.00;1.00;;;;;19.87;45.44;100336.00;5056150;28;45541;-53
2021/12/29 09:50:52;;;;;;;;;2.25;1.50;;;;;19.87;45.77;100336.00;5057218;28;45408;-54
2021/12/29 09:53:19;;;;;;;;;1.75;1.00;;;;;19.91;45.77;100328.75;5056973;28;45304;-53
2021/12/29 09:55:46;;;;;;;;;3.25;1.25;;;;;19.89;45.78;100331.50;5057077;28;45345;-55
2021/12/29 09:58:12;;;;;;;;;1.00;1.00;;;;;19.91;45.33;100334.88;5055928;28;45411;-58
2021/12/29 10:00:45;;;;;;;;;1.50;1.00;;;;;19.95;45.28;100338.16;5056883;28;45406;-53
2021/12/29 10:03:14;;;;;;;;;1.25;1.25;;;;;19.97;45.89;100333.66;5056711;28;45506;-52
2021/12/29 10:05:41;;;;;;;;;3.00;2.00;;;;;19.97;45.54;100341.53;5056904;28;45378;-54
2021/12/29 10:08:12;;;;;;;;;4.00;1.00;;;;;19.95;45.54;100335.53;5055657;28;45476;-54
2021/12/29 10:10:46;;;;;;;;;3.00;1.50;;;;;19.92;45.78;100330.44;5056632;28;46376;-54
2021/12/29 10:13:13;;;;;;;;;4.00;2.00;;;;;19.90;45.55;100333.19;5072114;28;45741;-51
2021/12/29 10:15:44;;;;;;;;;2.75;2.00;;;;;19.88;46.19;100335.06;5055537;28;45309;-53
2021/12/29 10:18:14;;;;;;;;;1.50;1.00;;;;;19.90;46.46;100333.19;5056829;28;45625;-53
2021/12/29 10:20:55;;;;;;;;;5.75;3.00;;;;;19.91;46.38;100334.00;5056671;28;46236;-54
2021/12/29 10:23:26;;;;;;;;;4.00;2.25;;;;;19.89;46.53;100347.28;5056765;28;45945;-52
2021/12/29 10:25:53;;;;;;;;;2.75;2.75;;;;;19.89;46.45;100346.44;5057111;28;45322;-51
2021/12/29 10:28:25;;;;;;;;;2.25;2.00;;;;;19.87;46.44;100343.03;5056948;28;45316;-54
2021/12/29 10:31:07;;;;;;;;;2.00;2.00;;;;;19.87;46.46;100353.56;5056792;28;46283;-52
2021/12/29 10:33:47;;;;;;;;;3.75;3.00;;;;;19.86;46.48;100354.50;5056466;28;45395;-54
2021/12/29 10:36:24;;;;;;;;;2.75;2.75;;;;;19.87;46.14;100359.66;5056547;27;45679;-53
2021/12/29 10:39:06;;;;;;;;;1.25;1.00;;;;;19.88;46.04;100360.53;5056800;28;45513;-53
2021/12/29 10:41:42;;;;;;;;;2.00;1.50;;;;;19.86;46.59;100349.25;5056212;28;46387;-53
2021/12/29 10:44:07;;;;;;;;;3.00;3.00;;;;;19.86;46.12;100363.22;5056222;28;45357;-54
2021/12/29 10:46:33;;;;;;;;;1.50;1.50;;;;;19.87;46.32;100353.56;5056439;28;45311;-52
2021/12/29 10:49:04;;;;;;;;;2.25;1.00;;;;;19.85;46.21;100348.34;5056479;28;45467;-54
2021/12/29 10:51:33;;;;;;;;;1.25;1.25;;;;;19.88;46.68;100365.78;5055062;28;46162;-53
2021/12/29 10:54:06;;;;;;;;;1.00;1.00;;;;;19.89;46.53;100364.84;5056071;28;45360;-52
2021/12/29 10:56:33;;;;;;;;;2.00;2.00;;;;;19.89;46.73;100359.59;5056333;28;45303;-54
2021/12/29 10:58:58;;;;;;;;;1.75;1.75;;;;;19.89;46.74;100362.22;5055031;28;45600;-54
2021/12/29 11:01:24;;;;;;;;;2.25;1.75;;;;;19.90;46.65;100370.00;5056235;28;47038;-53
2021/12/29 11:03:53;;;;;;;;;2.50;1.00;;;;;19.92;46.82;100373.41;5056105;28;45462;-54
2021/12/29 11:06:22;;;;;;;;;2.00;1.00;;;;;19.92;46.86;100369.91;5056251;28;45297;-52
2021/12/29 11:09:01;;;;;;;;;1.50;1.00;;;;;19.93;47.08;100371.59;5054812;28;45356;-51
2021/12/29 11:11:40;;;;;;;;;1.50;1.50;;;;;19.95;46.72;100372.34;5055920;28;46286;-53
2021/12/29 11:14:06;;;;;;;;;2.00;1.00;;;;;19.95;46.64;100372.34;5055891;28;45200;-52
2021/12/29 11:16:32;;;;;;;;;0.75;0.75;;;;;19.96;47.07;100371.41;5054751;28;45318;-54
2021/12/29 11:18:57;;;;;;;;;0.00;0.00;;;;;19.96;46.96;100368.78;5058352;28;45403;-53
2021/12/29 11:21:35;;;;;;;;;4.00;2.00;;;;;19.95;47.22;100372.34;5059693;28;45308;-54
2021/12/29 11:24:16;;;;;;;;;1.50;1.50;;;;;19.97;47.23;100370.47;5059437;28;45713;-53
2021/12/29 11:26:43;;;;;;;;;3.00;0.75;;;;;19.99;47.10;100378.28;5059649;28;45164;-51